Terminal Aerodrome Forecast
Issued by NWS

Home | Current Version | Previous Version | Graphics & Text | Print | Product List | Glossary On
Versions: 1 2 3 4 5 6 7 8 9 10 11 12 13
000
FTUS43 KMPX 281100
TAFRWF
TAF
KRWF 281130Z 2812/2912 35005KT P6SM VCSH SCT025 OVC035
     FM281500 33008KT P6SM BKN050
     FM290100 31004KT P6SM SKC=

USA.gov is the U.S. government's official web portal to all federal, state and local government web resources and services.